| time (UTC) | temp F | wind direction | speed MPH | gust MPH | rain 1hr in | rain 24hr in | rain mn in | humidity % | barometer mb |
| 20260506182003 | 60 | 265 | 0.0 | 0.0 | 0.08 | 0.66 | 0.64 | 95 | 1005.6 |
| 20260506181003 | 60 | 265 | 0.0 | 0.0 | 0.09 | 0.65 | 0.63 | 96 | 1005.6 |
| 20260506180004 | 59 | 265 | 0.0 | 0.0 | 0.09 | 0.64 | 0.62 | 95 | 1005.7 |
| 20260506174003 | 58 | 265 | 0.0 | 1.0 | 0.09 | 0.60 | 0.58 | 95 | 1005.8 |
| 20260506173004 | 58 | 265 | 0.0 | 0.0 | 0.10 | 0.59 | 0.57 | 95 | 1005.8 |
| 20260506172003 | 58 | 265 | 0.0 | 2.0 | 0.11 | 0.58 | 0.56 | 95 | 1005.9 |
| 20260506171004 | 57 | 281 | 0.0 | 1.0 | 0.11 | 0.56 | 0.54 | 95 | 1005.9 |
| 20260506170003 | 57 | 281 | 0.0 | 2.0 | 0.12 | 0.55 | 0.53 | 95 | 1006.1 |
| 20260506165003 | 57 | 281 | 0.0 | 1.0 | 0.13 | 0.54 | 0.52 | 95 | 1006.2 |
| 20260506164004 | 57 | 281 | 0.0 | 0.0 | 0.12 | 0.51 | 0.49 | 95 | 1006.5 |
| 20260506161005 | 56 | 248 | 1.0 | 3.0 | 0.12 | 0.45 | 0.43 | 94 | 1006.6 |
| 20260506160004 | 56 | 194 | 0.0 | 3.0 | 0.12 | 0.43 | 0.41 | 94 | 1006.8 |
| 20260506155004 | 56 | 194 | 0.0 | 2.0 | 0.12 | 0.41 | 0.39 | 94 | 1006.9 |
| 20260506154003 | 56 | 194 | 0.0 | 3.0 | 0.13 | 0.39 | 0.37 | 94 | 1007.1 |
| 20260506153003 | 56 | 194 | 1.0 | 3.0 | 0.13 | 0.37 | 0.35 | 94 | 1007.2 |
| 20260506152003 | 56 | 194 | 0.0 | 2.0 | 0.13 | 0.35 | 0.33 | 94 | 1007.3 |
| 20260506150004 | 55 | 194 | 2.0 | 3.0 | 0.13 | 0.31 | 0.29 | 94 | 1007.4 |
| 20260506145004 | 55 | 193 | 0.0 | 2.0 | 0.11 | 0.29 | 0.27 | 94 | 1007.6 |
| 20260506144004 | 55 | 186 | 0.0 | 0.0 | 0.10 | 0.26 | 0.24 | 94 | 1007.7 |
| 20260506143004 | 55 | 186 | 0.0 | 3.0 | 0.10 | 0.24 | 0.22 | 94 | 1007.9 |
| 20260506142003 | 55 | 190 | 0.0 | 0.0 | 0.08 | 0.22 | 0.20 | 94 | 1008.2 |
| 20260506141003 | 55 | 190 | 0.0 | 2.0 | 0.08 | 0.21 | 0.19 | 94 | 1008.2 |
| 20260506140004 | 55 | 190 | 0.0 | 0.0 | 0.06 | 0.18 | 0.16 | 93 | 1008.1 |
| 20260506135003 | 55 | 190 | 0.0 | 0.0 | 0.08 | 0.18 | 0.16 | 93 | 1008.2 |
| 20260506133004 | 55 | 190 | 1.0 | 3.0 | 0.06 | 0.14 | 0.12 | 93 | 1007.8 |
| 20260506132003 | 55 | 279 | 1.0 | 2.0 | 0.08 | 0.14 | 0.12 | 93 | 1007.8 |
| 20260506130005 | 55 | 279 | 0.0 | 0.0 | 0.08 | 0.12 | 0.10 | 93 | 1007.7 |
| 20260506124004 | 55 | 279 | 0.0 | 0.0 | 0.05 | 0.09 | 0.07 | 93 | 1008.1 |
| 20260506122004 | 55 | 279 | 0.0 | 0.0 | 0.03 | 0.06 | 0.04 | 93 | 1008.3 |
| 20260506120003 | 55 | 56 | 0.0 | 0.0 | 0.01 | 0.04 | 0.02 | 92 | 1008.7 |
| 20260506115003 | 55 | 56 | 0.0 | 2.0 | 0.01 | 0.04 | 0.02 | 92 | 1008.5 |
| 20260506114003 | 55 | 56 | 1.0 | 2.0 | 0.01 | 0.04 | 0.02 | 92 | 1008.2 |
| 20260506113004 | 55 | 56 | 0.0 | 0.0 | 0.00 | 0.03 | 0.01 | 92 | 1008.0 |
| 20260506111003 | 54 | 56 | 0.0 | 0.0 | 0.01 | 0.03 | 0.01 | 91 | 1008.0 |
| 20260506110004 | 54 | 56 | 0.0 | 2.0 | 0.01 | 0.03 | 0.01 | 91 | 1008.1 |
| 20260506105003 | 54 | 56 | 1.0 | 3.0 | 0.01 | 0.03 | 0.01 | 91 | 1008.1 |
| 20260506104003 | 54 | 46 | 0.0 | 3.0 | 0.01 | 0.03 | 0.01 | 91 | 1008.0 |
| 20260506103004 | 54 | 54 | 1.0 | 7.0 | 0.01 | 0.03 | 0.01 | 90 | 1008.0 |
| 20260506102004 | 54 | 307 | 1.0 | 3.0 | 0.01 | 0.03 | 0.01 | 90 | 1007.8 |
| 20260506101004 | 54 | 30 | 0.0 | 3.0 | 0.00 | 0.02 | 0.00 | 90 | 1007.8 |
| 20260506100003 | 54 | 25 | 0.0 | 2.0 | 0.00 | 0.02 | 0.00 | 90 | 1007.9 |
| 20260506095004 | 54 | 46 | 0.0 | 0.0 | 0.00 | 0.02 | 0.00 | 89 | 1007.6 |
| 20260506094003 | 54 | 46 | 0.0 | 0.0 | 0.00 | 0.02 | 0.00 | 89 | 1007.5 |
| 20260506093004 | 54 | 46 | 0.0 | 0.0 | 0.00 | 0.02 | 0.00 | 88 | 1007.5 |
| 20260506091003 | 54 | 46 | 0.0 | 0.0 | 0.00 | 0.02 | 0.00 | 88 | 1007.5 |
| 20260506090004 | 54 | 46 | 0.0 | 0.0 | 0.00 | 0.02 | 0.00 | 87 | 1007.8 |
| 20260506085004 | 55 | 46 | 0.0 | 0.0 | 0.00 | 0.02 | 0.00 | 87 | 1007.5 |
| 20260506083003 | 55 | 46 | 0.0 | 0.0 | 0.00 | 0.02 | 0.00 | 86 | 1008.0 |
| 20260506082004 | 55 | 46 | 0.0 | 2.0 | 0.00 | 0.02 | 0.00 | 86 | 1008.1 |
| 20260506081003 | 55 | 46 | 0.0 | 0.0 | 0.00 | 0.02 | 0.00 | 85 | 1008.1 |
| 20260506073003 | 55 | 50 | 1.0 | 3.0 | 0.00 | 0.02 | 0.00 | 85 | 1008.6 |
| 20260506072003 | 55 | 59 | 1.0 | 3.0 | 0.00 | 0.02 | 0.00 | 85 | 1008.6 |
| 20260506071003 | 55 | 56 | 2.0 | 3.0 | 0.00 | 0.02 | 0.00 | 85 | 1008.5 |
| 20260506061003 | 56 | 57 | 2.0 | 5.0 | 0.00 | 0.02 | 0.00 | 86 | 1008.9 |
| 20260506051003 | 57 | 57 | 1.0 | 3.0 | 0.00 | 0.02 | 0.00 | 88 | 1009.0 |
| 20260506045003 | 58 | 42 | 0.0 | 0.0 | 0.00 | 0.02 | 0.00 | 86 | 1008.8 |
| 20260506042003 | 59 | 40 | 2.0 | 5.0 | 0.00 | 0.02 | 0.00 | 86 | 1009.0 |
| 20260506041003 | 60 | 52 | 2.0 | 3.0 | 0.00 | 0.02 | 0.00 | 85 | 1008.9 |
| 20260506040004 | 60 | 70 | 3.0 | 8.0 | 0.00 | 0.02 | 0.00 | 84 | 1009.1 |
| 20260506035004 | 61 | 59 | 2.0 | 7.0 | 0.00 | 0.00 | 0.00 | 83 | 1008.9 |
| 20260506033003 | 62 | 66 | 5.0 | 8.0 | 0.00 | 0.00 | 0.00 | 82 | 1009.0 |
| 20260506031003 | 63 | 74 | 4.0 | 7.0 | 0.00 | 0.00 | 0.00 | 83 | 1008.8 |
| 20260506025003 | 63 | 64 | 2.0 | 7.0 | 0.00 | 0.00 | 0.00 | 82 | 1008.4 |
| 20260506024003 | 62 | 62 | 2.0 | 5.0 | 0.00 | 0.00 | 0.00 | 84 | 1008.4 |
| 20260506023004 | 62 | 62 | 0.0 | 0.0 | 0.00 | 0.00 | 0.00 | 84 | 1008.4 |
| 20260506022004 | 62 | 62 | 0.0 | 0.0 | 0.00 | 0.00 | 0.00 | 84 | 1008.3 |
| 20260506021003 | 62 | 62 | 0.0 | 0.0 | 0.00 | 0.00 | 0.00 | 84 | 1008.2 |
| 20260506020003 | 63 | 62 | 0.0 | 0.0 | 0.00 | 0.00 | 0.00 | 83 | 1008.1 |
| 20260506014003 | 63 | 62 | 0.0 | 3.0 | 0.00 | 0.00 | 0.00 | 82 | 1007.7 |
| 20260506013003 | 63 | 62 | 0.0 | 0.0 | 0.00 | 0.00 | 0.00 | 82 | 1007.7 |
| 20260506012004 | 64 | 62 | 1.0 | 2.0 | 0.00 | 0.00 | 0.00 | 81 | 1007.4 |
| 20260506011005 | 64 | 62 | 1.0 | 2.0 | 0.00 | 0.00 | 0.00 | 79 | 1007.4 |
| 20260506010003 | 65 | 62 | 1.0 | 3.0 | 0.00 | 0.00 | 0.00 | 77 | 1007.2 |
| 20260506005004 | 65 | 64 | 1.0 | 3.0 | 0.00 | 0.00 | 0.00 | 77 | 1007.3 |
| 20260506004005 | 64 | 73 | 1.0 | 3.0 | 0.00 | 0.00 | 0.00 | 78 | 1007.5 |
| 20260506003005 | 64 | 270 | 2.0 | 3.0 | 0.00 | 0.00 | 0.00 | 79 | 1006.9 |
| 20260506002004 | 64 | 63 | 0.0 | 2.0 | 0.00 | 0.00 | 0.00 | 77 | 1006.9 |
| 20260506001003 | 64 | 63 | 1.0 | 2.0 | 0.00 | 0.00 | 0.00 | 77 | 1006.5 |
| 20260505234003 | 66 | 63 | 1.0 | 3.0 | 0.00 | 0.00 | 0.00 | 74 | 1006.6 |
| 20260505233004 | 66 | 47 | 2.0 | 7.0 | 0.00 | 0.00 | 0.00 | 74 | 1006.3 |
| 20260505232003 | 66 | 62 | 4.0 | 9.0 | 0.00 | 0.00 | 0.00 | 74 | 1006.2 |
| 20260505231004 | 66 | 36 | 5.0 | 12.0 | 0.00 | 0.00 | 0.00 | 74 | 1006.0 |
| 20260505230004 | 65 | 42 | 4.0 | 8.0 | 0.00 | 0.00 | 0.00 | 75 | 1005.8 |
| 20260505225003 | 65 | 70 | 4.0 | 12.0 | 0.00 | 0.00 | 0.00 | 76 | 1005.5 |
| 20260505224004 | 65 | 79 | 5.0 | 12.0 | 0.00 | 0.00 | 0.00 | 77 | 1005.6 |
| 20260505223003 | 65 | 63 | 8.0 | 14.0 | 0.00 | 0.00 | 0.00 | 75 | 1005.7 |
| 20260505222003 | 66 | 63 | 8.0 | 15.0 | 0.00 | 0.00 | 0.00 | 73 | 1005.9 |
| 20260505221004 | 66 | 71 | 9.0 | 17.0 | 0.00 | 0.00 | 0.00 | 72 | 1006.2 |
| 20260505220004 | 67 | 70 | 10.0 | 21.0 | 0.00 | 0.00 | 0.00 | 69 | 1006.2 |
| 20260505215003 | 68 | 72 | 12.0 | 21.0 | 0.00 | 0.00 | 0.00 | 67 | 1006.3 |
| 20260505214003 | 69 | 62 | 9.0 | 17.0 | 0.00 | 0.00 | 0.00 | 65 | 1006.1 |
| 20260505211003 | 70 | 101 | 5.0 | 18.0 | 0.00 | 0.00 | 0.00 | 63 | 1005.3 |
| 20260505210004 | 71 | 85 | 9.0 | 26.0 | 0.00 | 0.00 | 0.00 | 62 | 1005.4 |
| 20260505205003 | 74 | 74 | 5.0 | 10.0 | 0.00 | 0.00 | 0.00 | 62 | 1004.8 |
| 20260505204005 | 74 | 45 | 2.0 | 7.0 | 0.00 | 0.00 | 0.00 | 63 | 1004.0 |
| 20260505203004 | 74 | 67 | 2.0 | 6.0 | 0.00 | 0.00 | 0.00 | 63 | 1003.7 |
| 20260505202004 | 73 | 116 | 1.0 | 3.0 | 0.00 | 0.00 | 0.00 | 67 | 1003.8 |
| 20260505201003 | 72 | 81 | 2.0 | 7.0 | 0.00 | 0.00 | 0.00 | 69 | 1004.0 |
| 20260505200004 | 71 | 110 | 2.0 | 7.0 | 0.00 | 0.00 | 0.00 | 69 | 1004.1 |
| 20260505195003 | 72 | 128 | 2.0 | 13.0 | 0.00 | 0.00 | 0.00 | 64 | 1004.1 |
| 20260505194003 | 75 | 38 | 7.0 | 18.0 | 0.00 | 0.00 | 0.00 | 53 | 1004.7 |
| 20260505193003 | 81 | 56 | 7.0 | 24.0 | 0.00 | 0.00 | 0.00 | 37 | 1003.7 |
| 20260505192003 | 81 | 57 | 5.0 | 13.0 | 0.00 | 0.00 | 0.00 | 37 | 1003.2 |
| 20260505191004 | 82 | 56 | 11.0 | 17.0 | 0.00 | 0.00 | 0.00 | 35 | 1003.1 |
| 20260505190004 | 83 | 64 | 10.0 | 23.0 | 0.00 | 0.00 | 0.00 | 36 | 1003.2 |
| 20260505185003 | 82 | 73 | 9.0 | 18.0 | 0.00 | 0.00 | 0.00 | 37 | 1003.1 |
| 20260505184003 | 82 | 58 | 6.0 | 14.0 | 0.00 | 0.00 | 0.00 | 38 | 1003.3 |